Time;durP1;ratioP1;P1;durP2;ratioP2;P2;SDS_P1;SDS_P2;PMS_P1;PMS_P2;Temp;Humidity;BMP_temperature;BMP_pressure;BME280_temperature;BME280_humidity;BME280_pressure;Samples;Min_cycle;Max_cycle;Signal;HPM_P1;HPM_P2
2022/03/12 00:01:22;;;;;;;22.95;15.73;;;5.10;67.60;;;;;;5010601;28;20042;-68
2022/03/12 00:03:47;;;;;;;29.60;16.90;;;5.10;67.50;;;;;;5011231;28;20046;-68
2022/03/12 00:06:15;;;;;;;27.38;16.08;;;5.10;67.40;;;;;;5006607;28;20045;-68
2022/03/12 00:08:43;;;;;;;22.63;16.08;;;5.10;67.40;;;;;;5007144;28;20041;-68
2022/03/12 00:11:17;;;;;;;28.42;17.52;;;5.10;67.30;;;;;;5006137;28;20132;-69
2022/03/12 00:13:44;;;;;;;26.80;17.60;;;5.10;67.30;;;;;;5010533;28;20042;-69
2022/03/12 00:16:16;;;;;;;21.42;13.80;;;5.10;67.50;;;;;;5009988;28;20041;-68
2022/03/12 00:18:44;;;;;;;26.50;15.85;;;5.10;67.30;;;;;;5010708;28;20041;-69
2022/03/12 00:21:12;;;;;;;22.70;15.25;;;5.10;67.70;;;;;;5007459;28;20041;-68
2022/03/12 00:23:38;;;;;;;28.73;16.48;;;5.10;67.70;;;;;;5004027;28;20598;-68
2022/03/12 00:26:03;;;;;;;21.02;15.25;;;5.10;67.70;;;;;;5006729;28;20133;-69
2022/03/12 00:28:30;;;;;;;24.00;14.85;;;5.00;67.90;;;;;;5005075;28;20373;-68
2022/03/12 00:30:56;;;;;;;22.65;16.70;;;5.00;68.00;;;;;;5006157;28;20038;-69
2022/03/12 00:33:22;;;;;;;22.23;16.25;;;5.00;68.20;;;;;;5008788;28;20048;-69
2022/03/12 00:35:51;;;;;;;21.85;15.27;;;5.00;68.20;;;;;;5010194;28;20060;-69
2022/03/12 00:38:19;;;;;;;22.48;15.65;;;5.00;68.50;;;;;;5009577;28;20045;-68
2022/03/12 00:40:45;;;;;;;26.13;14.80;;;5.00;68.80;;;;;;5009826;28;20061;-69
2022/03/12 00:43:11;;;;;;;23.95;15.48;;;4.90;69.00;;;;;;5013722;28;20053;-70
2022/03/12 00:45:37;;;;;;;25.52;16.73;;;4.90;69.20;;;;;;5009769;28;20161;-69
2022/03/12 00:48:03;;;;;;;21.58;15.75;;;4.80;70.20;;;;;;5009944;28;20140;-69
2022/03/12 00:50:30;;;;;;;29.65;17.10;;;4.70;70.50;;;;;;5015559;28;20045;-68
2022/03/12 00:52:55;;;;;;;29.27;16.58;;;4.70;71.00;;;;;;5009303;28;20088;-68
2022/03/12 00:55:21;;;;;;;23.13;16.23;;;4.60;71.60;;;;;;5006868;28;20046;-68
2022/03/12 00:57:47;;;;;;;27.65;18.35;;;4.60;71.60;;;;;;5005997;28;20045;-69
2022/03/12 01:00:18;;;;;;;27.85;17.08;;;4.60;72.10;;;;;;5008269;28;20042;-68
2022/03/12 01:02:45;;;;;;;25.23;15.23;;;4.50;73.20;;;;;;5005990;28;20160;-68
2022/03/12 01:05:15;;;;;;;24.23;16.73;;;4.40;73.30;;;;;;5004373;28;20109;-69
2022/03/12 01:07:41;;;;;;;26.67;16.77;;;4.40;73.40;;;;;;5008661;28;20042;-68
2022/03/12 01:10:09;;;;;;;24.23;15.60;;;4.40;73.60;;;;;;5009259;28;20049;-68
2022/03/12 01:12:36;;;;;;;27.52;16.15;;;4.40;73.70;;;;;;5009836;28;20042;-69
2022/03/12 01:15:02;;;;;;;31.75;16.38;;;4.40;74.40;;;;;;5007745;28;20034;-68
2022/03/12 01:17:28;;;;;;;26.80;17.45;;;4.30;74.10;;;;;;5009434;28;20886;-68
2022/03/12 01:19:53;;;;;;;26.20;17.80;;;4.40;74.70;;;;;;5009181;28;20113;-69
2022/03/12 01:22:23;;;;;;;25.45;16.10;;;4.30;75.70;;;;;;5010188;28;20073;-68
2022/03/12 01:24:49;;;;;;;28.60;17.10;;;4.30;75.40;;;;;;5008705;28;20053;-68
2022/03/12 01:27:16;;;;;;;22.77;16.40;;;4.30;75.80;;;;;;5005528;28;20042;-68
2022/03/12 01:29:45;;;;;;;29.63;17.92;;;4.20;75.70;;;;;;5009029;28;20034;-67
2022/03/12 01:32:11;;;;;;;23.52;16.45;;;4.30;75.50;;;;;;5009378;28;20131;-69
2022/03/12 01:34:38;;;;;;;34.28;18.23;;;4.30;75.60;;;;;;5004615;28;20595;-68
2022/03/12 01:37:04;;;;;;;22.77;15.85;;;4.30;75.10;;;;;;5007767;28;20131;-68
2022/03/12 01:39:30;;;;;;;24.10;16.42;;;4.40;74.80;;;;;;5007332;28;20046;-68
2022/03/12 01:41:56;;;;;;;26.50;15.82;;;4.40;74.60;;;;;;5004130;28;20038;-68
2022/03/12 01:44:22;;;;;;;33.58;16.80;;;4.40;74.20;;;;;;5005105;28;20077;-68
2022/03/12 01:46:49;;;;;;;20.15;15.85;;;4.50;74.30;;;;;;5003022;28;20046;-69
2022/03/12 01:49:19;;;;;;;24.88;16.92;;;4.50;74.00;;;;;;5008406;28;20042;-68
2022/03/12 01:51:47;;;;;;;26.67;15.65;;;4.50;73.80;;;;;;5007749;28;20050;-68
2022/03/12 01:54:18;;;;;;;27.52;16.08;;;4.50;73.80;;;;;;5008080;28;20046;-68
2022/03/12 01:56:45;;;;;;;30.63;16.80;;;4.50;73.90;;;;;;5020439;28;20460;-68
2022/03/12 01:59:11;;;;;;;33.13;17.80;;;4.50;73.70;;;;;;5005999;28;20042;-68
2022/03/12 02:01:38;;;;;;;26.52;19.20;;;4.50;73.60;;;;;;4999679;28;20062;-68
2022/03/12 02:04:09;;;;;;;23.95;15.77;;;4.60;73.50;;;;;;5004166;28;20072;-68
2022/03/12 02:06:43;;;;;;;29.85;19.00;;;4.60;73.50;;;;;;5008270;28;20057;-68
2022/03/12 02:09:14;;;;;;;25.08;17.65;;;4.50;73.60;;;;;;5014377;28;20216;-68
2022/03/12 02:11:41;;;;;;;24.27;16.67;;;4.60;73.50;;;;;;5008251;28;20090;-68
2022/03/12 02:14:12;;;;;;;26.10;17.85;;;4.60;73.50;;;;;;5009484;28;20725;-67
2022/03/12 02:16:44;;;;;;;27.60;17.05;;;4.60;73.60;;;;;;5009554;28;20061;-67
2022/03/12 02:19:09;;;;;;;29.85;17.48;;;4.60;73.60;;;;;;5008338;28;20045;-68
2022/03/12 02:21:41;;;;;;;28.83;18.30;;;4.60;73.80;;;;;;5003169;28;20069;-68
2022/03/12 02:24:12;;;;;;;27.15;16.75;;;4.60;73.60;;;;;;5007622;28;20822;-69
2022/03/12 02:26:41;;;;;;;24.80;16.48;;;4.60;74.00;;;;;;5008964;28;20856;-69
2022/03/12 02:29:09;;;;;;;25.85;18.45;;;4.60;74.00;;;;;;5001783;28;20072;-69
2022/03/12 02:31:36;;;;;;;23.63;17.08;;;4.60;75.00;;;;;;5001327;28;20054;-69
2022/03/12 02:34:04;;;;;;;25.17;17.95;;;4.50;75.30;;;;;;5004516;28;20088;-69
2022/03/12 02:36:30;;;;;;;32.05;17.08;;;4.50;75.30;;;;;;5008040;28;20461;-69
2022/03/12 02:38:56;;;;;;;23.98;16.85;;;4.50;75.40;;;;;;5003521;28;20125;-68
2022/03/12 02:41:24;;;;;;;23.70;16.63;;;4.50;75.40;;;;;;5004056;28;20126;-68
2022/03/12 02:43:50;;;;;;;28.25;17.38;;;4.50;75.30;;;;;;5004989;28;20129;-69
2022/03/12 02:46:17;;;;;;;28.13;18.55;;;4.50;75.50;;;;;;4998092;28;20081;-68
2022/03/12 02:48:49;;;;;;;23.25;17.17;;;4.50;75.40;;;;;;5007226;28;20457;-70
2022/03/12 02:51:16;;;;;;;34.05;19.17;;;4.40;75.60;;;;;;4999902;28;20104;-68
2022/03/12 02:53:43;;;;;;;23.50;18.15;;;4.40;76.00;;;;;;5008211;28;20086;-69
2022/03/12 02:56:10;;;;;;;25.98;18.00;;;4.40;76.00;;;;;;5005668;28;20784;-69
2022/03/12 02:58:35;;;;;;;28.45;17.30;;;4.40;76.50;;;;;;5008869;28;20573;-69
2022/03/12 03:01:04;;;;;;;31.88;18.95;;;4.40;76.50;;;;;;5003451;28;20042;-69
2022/03/12 03:03:39;;;;;;;24.55;17.65;;;4.40;76.20;;;;;;5008890;28;20038;-69
2022/03/12 03:06:05;;;;;;;27.63;17.80;;;4.40;76.40;;;;;;5008500;28;20054;-69
2022/03/12 03:08:30;;;;;;;19.60;16.00;;;4.40;76.10;;;;;;5011017;28;20458;-69
2022/03/12 03:10:58;;;;;;;28.13;18.17;;;4.40;75.90;;;;;;5006948;28;20056;-69
2022/03/12 03:13:34;;;;;;;26.42;16.83;;;4.40;75.60;;;;;;5009087;28;20085;-68
2022/03/12 03:16:08;;;;;;;25.52;17.08;;;4.50;75.60;;;;;;5006808;28;20516;-69
2022/03/12 03:18:39;;;;;;;33.72;16.20;;;4.50;75.70;;;;;;5011453;28;20041;-69
2022/03/12 03:21:12;;;;;;;25.80;18.10;;;4.50;75.80;;;;;;5008965;28;20046;-69
2022/03/12 03:23:38;;;;;;;23.45;17.83;;;4.50;75.90;;;;;;5010337;28;20406;-68
2022/03/12 03:26:04;;;;;;;25.58;16.95;;;4.50;76.00;;;;;;5011269;28;20529;-69
2022/03/12 03:28:30;;;;;;;22.73;17.15;;;4.50;76.00;;;;;;5008298;28;20046;-69
2022/03/12 03:30:55;;;;;;;30.65;16.90;;;4.50;76.10;;;;;;5005959;28;20522;-69
2022/03/12 03:33:23;;;;;;;25.63;16.48;;;4.50;75.80;;;;;;5009687;28;20074;-69
2022/03/12 03:35:50;;;;;;;26.60;16.67;;;4.50;75.60;;;;;;5011300;28;20049;-69
2022/03/12 03:38:17;;;;;;;25.35;17.83;;;4.60;75.50;;;;;;5011274;28;20557;-68
2022/03/12 03:40:44;;;;;;;26.00;16.25;;;4.60;75.50;;;;;;5011052;28;20057;-69
2022/03/12 03:43:13;;;;;;;23.92;16.50;;;4.60;75.50;;;;;;5010940;28;20053;-69
2022/03/12 03:45:39;;;;;;;27.60;16.80;;;4.60;75.90;;;;;;5008116;28;20046;-68
2022/03/12 03:48:11;;;;;;;21.90;15.75;;;4.50;76.00;;;;;;5007625;28;20078;-69
2022/03/12 03:50:36;;;;;;;25.95;17.52;;;4.50;76.70;;;;;;5009800;28;20034;-69
2022/03/12 03:53:03;;;;;;;25.60;15.80;;;4.50;76.80;;;;;;5004354;28;20061;-69
2022/03/12 03:55:30;;;;;;;25.10;16.52;;;4.40;77.10;;;;;;5010516;28;20149;-69
2022/03/12 03:57:57;;;;;;;28.90;17.75;;;4.40;77.30;;;;;;5009585;28;20145;-69
2022/03/12 04:00:24;;;;;;;21.95;15.52;;;4.40;77.50;;;;;;5009782;28;20052;-69
2022/03/12 04:03:04;;;;;;;27.27;16.13;;;4.40;77.70;;;;;;5010617;28;20045;-69
2022/03/12 04:05:36;;;;;;;28.50;18.73;;;4.40;77.90;;;;;;5008740;28;20073;-69
2022/03/12 04:08:06;;;;;;;23.33;16.38;;;4.30;78.20;;;;;;5003858;28;20077;-69
2022/03/12 04:10:32;;;;;;;24.92;17.45;;;4.30;78.00;;;;;;5010808;28;20049;-69
2022/03/12 04:12:58;;;;;;;23.88;16.50;;;4.30;78.10;;;;;;5008257;28;20038;-69
2022/03/12 04:15:25;;;;;;;27.70;18.27;;;4.30;77.90;;;;;;5008986;28;20495;-68
2022/03/12 04:17:52;;;;;;;28.15;16.77;;;4.30;77.90;;;;;;5009908;28;20080;-70
2022/03/12 04:20:22;;;;;;;23.20;16.95;;;4.20;77.80;;;;;;5009107;28;20136;-69
2022/03/12 04:22:50;;;;;;;24.33;16.13;;;4.30;77.80;;;;;;5009818;28;20065;-68
2022/03/12 04:25:17;;;;;;;23.73;15.48;;;4.20;77.80;;;;;;5002600;28;20763;-68
2022/03/12 04:27:44;;;;;;;28.58;15.73;;;4.20;77.80;;;;;;5017829;28;20050;-69
2022/03/12 04:30:13;;;;;;;20.27;15.93;;;4.10;78.20;;;;;;5000367;28;20042;-68
2022/03/12 04:32:40;;;;;;;23.95;17.05;;;4.00;78.80;;;;;;5005444;28;20096;-69
2022/03/12 04:35:07;;;;;;;21.55;15.30;;;4.00;79.10;;;;;;5001929;28;20050;-69
2022/03/12 04:37:34;;;;;;;24.67;16.52;;;4.00;79.30;;;;;;5002154;28;20519;-69
2022/03/12 04:39:59;;;;;;;24.70;16.45;;;4.00;79.30;;;;;;4993997;28;20046;-69
2022/03/12 04:42:25;;;;;;;24.67;17.33;;;3.90;79.70;;;;;;5001597;28;20046;-69
2022/03/12 04:44:51;;;;;;;25.30;15.20;;;3.90;79.90;;;;;;5008254;28;20046;-68
2022/03/12 04:47:21;;;;;;;22.08;15.70;;;3.80;80.00;;;;;;5004364;28;20077;-69
2022/03/12 04:49:47;;;;;;;20.20;14.73;;;3.80;80.00;;;;;;4997942;28;20511;-68
2022/03/12 04:52:13;;;;;;;25.30;16.48;;;3.80;80.20;;;;;;5002458;28;20129;-68
2022/03/12 04:54:39;;;;;;;28.98;17.92;;;3.70;80.10;;;;;;5005571;28;20031;-68
2022/03/12 04:57:05;;;;;;;30.27;16.88;;;3.70;80.00;;;;;;5006729;28;20423;-67
2022/03/12 04:59:31;;;;;;;23.52;16.30;;;3.70;80.60;;;;;;5009442;28;20081;-67
2022/03/12 05:01:59;;;;;;;24.42;15.45;;;3.70;80.60;;;;;;5008067;28;20120;-69
2022/03/12 05:04:25;;;;;;;26.23;17.25;;;3.70;80.50;;;;;;5015557;28;20069;-69
2022/03/12 05:06:51;;;;;;;23.00;15.27;;;3.60;80.30;;;;;;5005462;28;20526;-68
2022/03/12 05:09:19;;;;;;;22.67;16.20;;;3.60;80.50;;;;;;5009570;28;20128;-69
2022/03/12 05:11:45;;;;;;;21.30;15.50;;;3.60;80.30;;;;;;5004830;28;20104;-68
2022/03/12 05:14:15;;;;;;;23.17;15.63;;;3.60;80.10;;;;;;5000890;28;20658;-69
2022/03/12 05:16:43;;;;;;;23.50;16.08;;;3.60;79.70;;;;;;5006815;28;20050;-69
2022/03/12 05:19:09;;;;;;;24.20;15.82;;;3.60;79.40;;;;;;4998486;28;20058;-68
2022/03/12 05:21:34;;;;;;;22.73;16.42;;;3.60;79.20;;;;;;5007339;28;20048;-69
2022/03/12 05:24:00;;;;;;;22.88;15.68;;;3.60;79.10;;;;;;5009746;28;20519;-69
2022/03/12 05:26:26;;;;;;;21.88;16.05;;;3.60;78.70;;;;;;5006541;28;20040;-69
2022/03/12 05:28:52;;;;;;;25.02;15.93;;;3.60;77.00;;;;;;5003502;28;20038;-69
2022/03/12 05:31:18;;;;;;;24.63;15.20;;;3.70;76.10;;;;;;5008445;28;20044;-69
2022/03/12 05:33:44;;;;;;;22.88;16.20;;;3.70;75.50;;;;;;5000034;28;20117;-69
2022/03/12 05:36:10;;;;;;;26.13;15.85;;;3.80;74.90;;;;;;5007021;28;20048;-69
2022/03/12 05:38:37;;;;;;;23.98;15.60;;;3.80;74.60;;;;;;5003878;28;20041;-69
2022/03/12 05:41:10;;;;;;;21.58;14.82;;;3.80;74.20;;;;;;5002983;28;20054;-69
2022/03/12 05:43:44;;;;;;;20.60;14.00;;;3.80;74.10;;;;;;5020421;28;20059;-69
2022/03/12 05:46:11;;;;;;;18.48;13.57;;;3.80;74.20;;;;;;5005031;28;20043;-69
2022/03/12 05:48:37;;;;;;;23.05;14.57;;;3.80;74.30;;;;;;5004002;28;20424;-69
2022/03/12 05:51:04;;;;;;;21.10;13.93;;;3.80;74.70;;;;;;5011461;28;20046;-69
2022/03/12 05:53:30;;;;;;;19.65;14.15;;;3.80;74.90;;;;;;5013700;28;20061;-68
2022/03/12 05:55:55;;;;;;;20.10;14.48;;;3.80;74.70;;;;;;5006142;28;20128;-68
2022/03/12 05:58:26;;;;;;;21.17;14.98;;;3.70;75.40;;;;;;5004614;28;20129;-69
2022/03/12 06:00:54;;;;;;;21.88;13.60;;;3.70;75.70;;;;;;5006581;28;20395;-68
2022/03/12 06:03:21;;;;;;;24.83;16.10;;;3.60;76.00;;;;;;5006741;28;20050;-69
2022/03/12 06:05:55;;;;;;;19.83;14.98;;;3.60;76.10;;;;;;5013865;28;20049;-68
2022/03/12 06:08:22;;;;;;;23.63;14.95;;;3.60;76.10;;;;;;5002899;28;20047;-69
2022/03/12 06:10:51;;;;;;;21.42;14.85;;;3.60;76.60;;;;;;5016986;28;20577;-69
2022/03/12 06:13:20;;;;;;;20.27;14.18;;;3.50;77.20;;;;;;4989116;28;20060;-69
2022/03/12 06:15:53;;;;;;;22.92;14.52;;;3.50;78.10;;;;;;4999987;28;20407;-71
2022/03/12 06:18:19;;;;;;;23.00;15.48;;;3.40;78.70;;;;;;5003427;28;20630;-67
2022/03/12 06:20:45;;;;;;;23.08;15.50;;;3.40;79.00;;;;;;5006991;28;20422;-68
2022/03/12 06:23:10;;;;;;;19.70;14.25;;;3.40;79.30;;;;;;5008930;28;20049;-68
2022/03/12 06:25:36;;;;;;;25.10;15.75;;;3.40;79.40;;;;;;5006422;28;20113;-69
2022/03/12 06:28:02;;;;;;;21.50;15.52;;;3.50;79.50;;;;;;5010651;28;20401;-68
2022/03/12 06:30:30;;;;;;;20.50;14.27;;;3.50;79.70;;;;;;5018047;28;20080;-67
2022/03/12 06:32:57;;;;;;;26.80;15.10;;;3.50;79.70;;;;;;5005042;28;20041;-69
2022/03/12 06:35:25;;;;;;;26.30;14.55;;;3.60;79.90;;;;;;5007332;28;20045;-68
2022/03/12 06:37:51;;;;;;;25.10;15.23;;;3.60;81.20;;;;;;5008612;28;20052;-68
2022/03/12 06:40:18;;;;;;;20.98;14.63;;;3.60;80.30;;;;;;5016639;28;20410;-69
2022/03/12 06:42:46;;;;;;;19.02;14.50;;;3.60;80.70;;;;;;5023905;28;20442;-69
2022/03/12 06:45:15;;;;;;;22.65;13.68;;;3.70;80.40;;;;;;5011781;28;20061;-68
2022/03/12 06:47:46;;;;;;;23.98;14.88;;;3.70;80.00;;;;;;5024029;28;20105;-69
2022/03/12 06:50:17;;;;;;;20.17;14.48;;;3.80;79.60;;;;;;5011448;28;20053;-69
2022/03/12 06:52:45;;;;;;;22.13;15.75;;;3.80;78.80;;;;;;5016036;28;20064;-69
2022/03/12 06:55:11;;;;;;;19.65;12.75;;;3.90;78.00;;;;;;5009547;28;20046;-69
2022/03/12 06:57:37;;;;;;;19.85;13.80;;;3.90;77.30;;;;;;5014755;28;20104;-69
2022/03/12 07:00:12;;;;;;;20.50;13.70;;;4.00;76.60;;;;;;5015760;28;20053;-69
2022/03/12 07:02:38;;;;;;;26.85;15.18;;;4.10;76.70;;;;;;5014140;28;20047;-69
2022/03/12 07:05:05;;;;;;;20.05;13.93;;;4.20;76.30;;;;;;5018166;28;20049;-69
2022/03/12 07:07:31;;;;;;;24.70;15.75;;;4.20;76.00;;;;;;5007169;28;20085;-69
2022/03/12 07:09:57;;;;;;;20.58;14.82;;;4.30;75.90;;;;;;5016757;28;20582;-70
2022/03/12 07:12:22;;;;;;;20.90;14.05;;;4.30;75.80;;;;;;5011063;28;20121;-70
2022/03/12 07:14:48;;;;;;;20.75;14.57;;;4.40;75.90;;;;;;5007755;28;20030;-69
2022/03/12 07:17:14;;;;;;;18.15;13.45;;;4.40;75.80;;;;;;5003633;28;20052;-69
2022/03/12 07:19:39;;;;;;;19.80;14.13;;;4.50;75.90;;;;;;5018876;28;20044;-69
2022/03/12 07:22:05;;;;;;;32.33;15.57;;;4.50;76.10;;;;;;5013303;28;20052;-69
2022/03/12 07:24:32;;;;;;;20.15;14.85;;;4.60;76.10;;;;;;5000868;28;20042;-68
2022/03/12 07:26:58;;;;;;;19.30;14.13;;;4.70;76.30;;;;;;5008760;28;20060;-68
2022/03/12 07:29:24;;;;;;;21.30;13.57;;;4.70;76.00;;;;;;5006545;28;20396;-68
2022/03/12 07:31:49;;;;;;;20.02;14.43;;;4.80;75.80;;;;;;5007447;28;20507;-68
2022/03/12 07:34:15;;;;;;;22.45;14.98;;;4.90;75.70;;;;;;5012695;28;20044;-68
2022/03/12 07:36:41;;;;;;;21.65;14.95;;;5.00;75.20;;;;;;5009531;28;20069;-69
2022/03/12 07:39:07;;;;;;;27.13;16.77;;;5.00;75.20;;;;;;5014779;28;20045;-69
2022/03/12 07:41:33;;;;;;;24.00;14.27;;;5.00;75.20;;;;;;5017979;28;20172;-69
2022/03/12 07:43:58;;;;;;;25.27;14.27;;;5.10;75.10;;;;;;5016557;28;20049;-69
2022/03/12 07:46:24;;;;;;;24.33;14.75;;;5.10;74.90;;;;;;5003221;28;20046;-69
2022/03/12 07:48:50;;;;;;;18.88;13.20;;;5.20;74.60;;;;;;5013825;28;20059;-68
2022/03/12 07:51:16;;;;;;;22.25;14.75;;;5.20;74.80;;;;;;5011066;28;20049;-69
2022/03/12 07:53:42;;;;;;;22.35;15.90;;;5.40;74.50;;;;;;5015262;28;20124;-68
2022/03/12 07:56:08;;;;;;;20.27;14.38;;;5.50;74.50;;;;;;5007529;28;20082;-68
2022/03/12 07:58:35;;;;;;;23.80;16.60;;;5.70;74.50;;;;;;5014704;28;20049;-70
2022/03/12 08:01:03;;;;;;;23.35;14.98;;;5.90;74.20;;;;;;5010302;28;20153;-70
2022/03/12 08:03:29;;;;;;;22.98;15.63;;;6.10;73.70;;;;;;5015902;28;20056;-70
2022/03/12 08:05:55;;;;;;;22.45;15.60;;;6.30;73.00;;;;;;5009429;28;20046;-70
2022/03/12 08:08:21;;;;;;;19.92;14.95;;;6.50;72.10;;;;;;5011132;28;20048;-70
2022/03/12 08:13:31;;;;;;;19.65;14.70;;;6.90;71.10;;;;;;5006504;28;20049;-70
2022/03/12 08:15:57;;;;;;;23.80;14.85;;;7.00;70.70;;;;;;5007578;28;20457;-70
2022/03/12 08:18:23;;;;;;;26.15;15.90;;;7.10;69.90;;;;;;5005627;28;20086;-70
2022/03/12 08:20:50;;;;;;;23.23;17.13;;;7.30;70.10;;;;;;5017892;28;20880;-70
2022/03/12 08:23:16;;;;;;;23.00;16.52;;;7.40;69.30;;;;;;5001770;28;20050;-70
2022/03/12 08:25:42;;;;;;;25.70;16.50;;;7.50;68.70;;;;;;5011558;28;20049;-71
2022/03/12 08:28:08;;;;;;;25.73;17.40;;;7.60;69.00;;;;;;5008717;28;20416;-70
2022/03/12 08:30:35;;;;;;;30.92;17.40;;;7.60;68.50;;;;;;5010138;28;20491;-70
2022/03/12 08:33:02;;;;;;;23.70;16.23;;;7.60;67.70;;;;;;5003095;28;20041;-71
2022/03/12 08:35:28;;;;;;;22.23;17.00;;;7.70;68.40;;;;;;5011559;28;20423;-70
2022/03/12 08:37:54;;;;;;;23.90;17.50;;;7.80;67.80;;;;;;5011408;28;20045;-70
2022/03/12 08:40:20;;;;;;;24.73;16.80;;;7.80;68.10;;;;;;5011460;28;20061;-70
2022/03/12 08:42:46;;;;;;;26.90;17.38;;;7.90;68.60;;;;;;4998455;28;20442;-70
2022/03/12 08:45:12;;;;;;;25.05;16.70;;;8.00;68.50;;;;;;5014547;28;20072;-70
2022/03/12 08:47:40;;;;;;;29.23;17.63;;;8.10;68.20;;;;;;5003216;28;20777;-69
2022/03/12 08:50:09;;;;;;;25.42;18.05;;;8.20;68.50;;;;;;5008666;28;20117;-69
2022/03/12 08:52:36;;;;;;;31.40;17.65;;;8.30;68.20;;;;;;4999883;28;20049;-69
2022/03/12 08:55:03;;;;;;;27.63;18.40;;;8.40;68.10;;;;;;5008869;28;20061;-70
2022/03/12 08:57:29;;;;;;;32.23;19.30;;;8.50;67.90;;;;;;5004436;28;20046;-70
2022/03/12 08:59:55;;;;;;;24.15;16.88;;;8.60;68.00;;;;;;5011993;28;20820;-70
2022/03/12 09:02:23;;;;;;;23.92;16.90;;;8.70;67.00;;;;;;5003460;28;20137;-70
2022/03/12 09:04:49;;;;;;;33.92;19.23;;;8.80;67.20;;;;;;5002177;28;20034;-70
2022/03/12 09:07:17;;;;;;;35.88;18.95;;;9.00;66.50;;;;;;5007924;28;20050;-70
2022/03/12 09:09:43;;;;;;;26.75;18.98;;;9.10;66.30;;;;;;5015186;28;20915;-69
2022/03/12 09:12:09;;;;;;;29.40;19.10;;;9.30;66.00;;;;;;5002547;28;20038;-69
2022/03/12 09:14:38;;;;;;;24.63;18.20;;;9.50;65.50;;;;;;5000682;28;20045;-70
2022/03/12 09:17:04;;;;;;;28.40;18.23;;;9.60;65.10;;;;;;5002217;28;20074;-70
2022/03/12 09:19:32;;;;;;;35.00;20.58;;;9.80;65.20;;;;;;5001077;28;20046;-70
2022/03/12 09:21:57;;;;;;;23.70;17.98;;;9.90;65.70;;;;;;5001533;28;20058;-70
2022/03/12 09:24:23;;;;;;;34.42;20.45;;;10.10;65.60;;;;;;5001904;28;20049;-69
2022/03/12 09:26:49;;;;;;;34.67;20.60;;;10.20;65.50;;;;;;5002467;28;20614;-70
2022/03/12 09:29:15;;;;;;;28.52;18.73;;;10.30;65.00;;;;;;5000780;28;20045;-70
2022/03/12 09:31:40;;;;;;;32.58;18.63;;;10.50;65.70;;;;;;5000610;28;20045;-70
2022/03/12 09:34:07;;;;;;;29.45;20.88;;;10.70;66.50;;;;;;5002072;28;20061;-70
2022/03/12 09:36:35;;;;;;;38.35;20.73;;;10.80;65.00;;;;;;5002024;28;20053;-70
2022/03/12 09:39:03;;;;;;;30.40;20.35;;;11.00;65.00;;;;;;5001726;28;20100;-70
2022/03/12 09:41:29;;;;;;;37.65;22.02;;;11.20;65.30;;;;;;5002303;28;20065;-70
2022/03/12 09:43:54;;;;;;;28.38;18.77;;;11.30;64.80;;;;;;5003288;28;20080;-72
2022/03/12 09:46:20;;;;;;;30.55;19.58;;;11.30;64.80;;;;;;5002040;28;20132;-72
2022/03/12 09:48:46;;;;;;;39.85;21.52;;;11.40;64.90;;;;;;5003656;28;20045;-71
2022/03/12 09:51:11;;;;;;;27.88;19.20;;;11.60;65.20;;;;;;5003164;28;20042;-73
2022/03/12 09:53:37;;;;;;;30.35;20.48;;;11.70;65.20;;;;;;5001828;28;20106;-73
2022/03/12 09:56:03;;;;;;;38.00;21.23;;;11.80;66.00;;;;;;5003657;28;20129;-72
2022/03/12 09:58:29;;;;;;;37.17;21.27;;;12.00;66.30;;;;;;5003539;28;20084;-72
2022/03/12 10:00:54;;;;;;;33.55;19.67;;;12.10;66.10;;;;;;5003396;28;20489;-70
2022/03/12 10:03:20;;;;;;;29.13;19.67;;;12.30;66.50;;;;;;5003084;28;20053;-70
2022/03/12 10:05:46;;;;;;;33.70;19.75;;;12.40;66.30;;;;;;5002555;28;20044;-69
2022/03/12 10:08:12;;;;;;;44.25;22.33;;;12.60;66.60;;;;;;5003238;28;20112;-69
2022/03/12 10:10:38;;;;;;;27.80;19.80;;;12.70;66.70;;;;;;5002822;28;20053;-70
2022/03/12 10:13:04;;;;;;;34.72;21.98;;;12.70;66.40;;;;;;5003384;28;20046;-70
2022/03/12 10:15:30;;;;;;;34.65;21.30;;;12.80;66.30;;;;;;5004638;28;20093;-71
2022/03/12 10:17:56;;;;;;;39.00;21.00;;;13.00;66.50;;;;;;4989714;28;20050;-71
2022/03/12 10:20:30;;;;;;;37.22;22.40;;;13.10;67.30;;;;;;5007452;28;20046;-71
2022/03/12 10:22:56;;;;;;;35.67;21.27;;;13.20;67.60;;;;;;5007275;28;20077;-70
2022/03/12 10:25:23;;;;;;;34.00;22.83;;;13.30;67.50;;;;;;5007333;28;20038;-70
2022/03/12 10:27:49;;;;;;;40.55;22.10;;;13.30;67.80;;;;;;5007288;28;20042;-72
2022/03/12 10:30:15;;;;;;;30.40;22.15;;;13.40;68.20;;;;;;5007195;28;20054;-70
2022/03/12 10:32:46;;;;;;;36.65;22.38;;;13.50;67.80;;;;;;5007521;28;20065;-70
2022/03/12 10:35:18;;;;;;;28.80;20.83;;;13.60;68.60;;;;;;5001147;28;20046;-71
2022/03/12 10:37:45;;;;;;;32.58;20.88;;;13.60;69.20;;;;;;5003633;28;20038;-71
2022/03/12 10:40:17;;;;;;;29.92;21.23;;;13.70;69.30;;;;;;5005867;28;20154;-71
2022/03/12 10:42:52;;;;;;;38.10;22.80;;;13.70;69.60;;;;;;5002474;28;20042;-71
2022/03/12 10:45:24;;;;;;;31.88;21.02;;;13.70;70.10;;;;;;5002651;28;20054;-71
2022/03/12 10:47:55;;;;;;;24.52;18.52;;;13.80;70.30;;;;;;5010596;28;20054;-72
2022/03/12 10:50:22;;;;;;;27.42;18.80;;;13.90;70.80;;;;;;5003086;28;20050;-72
2022/03/12 10:52:50;;;;;;;31.77;19.65;;;14.00;71.30;;;;;;5006844;28;20580;-72
2022/03/12 10:55:27;;;;;;;29.65;20.02;;;14.10;71.40;;;;;;5006707;28;20114;-72
2022/03/12 10:58:12;;;;;;;28.25;18.92;;;14.10;71.10;;;;;;4999922;28;20811;-70
2022/03/12 11:00:48;;;;;;;32.38;20.90;;;14.20;71.40;;;;;;5005760;28;20050;-71
2022/03/12 11:03:20;;;;;;;35.30;21.05;;;14.20;71.10;;;;;;5009015;28;20161;-72
2022/03/12 11:05:47;;;;;;;41.83;22.27;;;14.20;70.80;;;;;;5017258;28;20053;-72
2022/03/12 11:08:15;;;;;;;28.67;19.67;;;14.20;71.00;;;;;;5021861;28;20125;-72
2022/03/12 11:10:46;;;;;;;;;;;14.20;70.90;;;;;;5018662;28;20049;-71
2022/03/12 11:13:27;;;;;;;37.28;24.80;;;14.20;71.00;;;;;;5018091;28;19948;-71
2022/03/12 11:16:12;;;;;;;34.28;22.67;;;14.30;70.70;;;;;;5014407;28;20038;-70
2022/03/12 11:18:47;;;;;;;32.83;20.73;;;14.30;70.90;;;;;;5010816;28;20046;-71
2022/03/12 11:21:24;;;;;;;36.65;20.83;;;14.30;71.50;;;;;;5017591;28;20050;-71
2022/03/12 11:23:50;;;;;;;43.63;21.70;;;14.40;71.10;;;;;;5017505;28;20072;-70
2022/03/12 11:26:15;;;;;;;37.38;21.95;;;14.40;71.40;;;;;;5007065;28;20091;-72
2022/03/12 11:28:43;;;;;;;30.98;22.70;;;14.50;71.30;;;;;;5011090;28;20567;-71
2022/03/12 11:31:10;;;;;;;36.25;21.42;;;14.40;71.40;;;;;;5010698;28;20128;-71
2022/03/12 11:33:36;;;;;;;39.38;21.35;;;14.50;71.50;;;;;;5011524;28;20061;-72
2022/03/12 11:36:09;;;;;;;37.97;24.02;;;14.60;71.40;;;;;;5015686;28;20045;-72
2022/03/12 11:38:36;;;;;;;33.75;22.42;;;14.60;71.00;;;;;;5013377;28;20061;-72
2022/03/12 11:41:11;;;;;;;32.92;23.30;;;14.60;71.10;;;;;;5014792;28;20491;-71
2022/03/12 11:43:41;;;;;;;41.28;25.65;;;14.70;71.30;;;;;;5001844;28;20057;-71
2022/03/12 11:46:11;;;;;;;34.70;23.00;;;14.80;71.30;;;;;;5009027;28;20184;-71
2022/03/12 11:48:38;;;;;;;35.33;21.58;;;14.90;71.70;;;;;;5004128;28;20446;-71
2022/03/12 11:51:23;;;;;;;33.37;20.23;;;15.00;71.70;;;;;;5006298;28;20077;-72
2022/03/12 11:53:52;;;;;;;33.38;21.80;;;15.10;71.50;;;;;;5015652;28;20041;-71
2022/03/12 11:56:20;;;;;;;30.90;20.85;;;15.00;71.40;;;;;;5011247;28;20702;-71
2022/03/12 11:58:47;;;;;;;33.17;21.77;;;15.00;71.70;;;;;;5011864;28;20053;-72
2022/03/12 12:01:22;;;;;;;29.52;21.35;;;14.90;72.00;;;;;;5013194;28;20051;-72
2022/03/12 12:03:50;;;;;;;32.05;21.58;;;14.90;72.30;;;;;;5008398;28;20511;-72
2022/03/12 12:06:16;;;;;;;;;;;14.80;72.70;;;;;;5006671;28;20104;-71
2022/03/12 12:08:43;;;;;;;35.10;19.42;;;14.80;73.20;;;;;;5018327;28;19921;-72
2022/03/12 12:11:11;;;;;;;25.98;18.20;;;14.80;73.20;;;;;;5004756;28;20050;-70
2022/03/12 12:13:37;;;;;;;29.73;18.38;;;14.70;73.30;;;;;;5015979;28;20050;-71
2022/03/12 12:16:06;;;;;;;27.63;18.65;;;14.60;73.50;;;;;;5015608;28;20049;-71
2022/03/12 12:18:31;;;;;;;29.58;19.35;;;14.50;73.60;;;;;;5003403;28;20082;-72
2022/03/12 12:20:57;;;;;;;25.15;18.73;;;14.60;73.80;;;;;;5006011;28;20080;-71
2022/03/12 12:23:23;;;;;;;28.33;17.15;;;14.70;73.60;;;;;;5011516;28;20403;-70
2022/03/12 12:25:48;;;;;;;35.47;19.92;;;14.90;74.00;;;;;;5002189;28;20050;-71
2022/03/12 12:28:22;;;;;;;31.58;18.27;;;15.00;74.00;;;;;;5007780;28;20674;-72
2022/03/12 12:30:53;;;;;;;27.13;19.05;;;15.10;74.00;;;;;;5005336;28;20148;-71
2022/03/12 12:33:27;;;;;;;33.38;20.90;;;15.20;73.90;;;;;;4992976;28;20092;-71
2022/03/12 12:36:16;;;;;;;34.03;21.67;;;15.10;73.60;;;;;;5008296;28;20116;-71
2022/03/12 12:39:05;;;;;;;27.52;18.40;;;15.20;73.50;;;;;;5012532;28;20518;-72
2022/03/12 12:41:53;;;;;;;34.05;19.52;;;15.20;73.40;;;;;;5007487;28;20042;-71